createdAt,value
2019-05-25T00:00:17.267Z,0.00
2019-05-25T00:01:17.256Z,0.00
2019-05-25T00:02:17.256Z,0.00
2019-05-25T00:03:17.245Z,0.00
2019-05-25T00:04:17.225Z,0.00
2019-05-25T00:05:17.219Z,0.00
2019-05-25T00:06:17.210Z,0.00
2019-05-25T00:07:17.193Z,0.00
2019-05-25T00:08:17.199Z,0.00
2019-05-25T00:09:17.170Z,0.00
2019-05-25T00:10:17.167Z,0.00
2019-05-25T00:11:17.148Z,0.00
2019-05-25T00:12:17.140Z,0.00
2019-05-25T00:13:17.125Z,0.00
2019-05-25T00:14:17.127Z,0.00
2019-05-25T00:15:17.107Z,0.00
2019-05-25T00:16:17.094Z,0.00
2019-05-25T00:17:17.092Z,0.00
2019-05-25T00:18:17.072Z,0.00
2019-05-25T00:19:17.061Z,0.00
2019-05-25T00:20:17.064Z,0.00
2019-05-25T00:21:17.037Z,0.00
2019-05-25T00:22:17.026Z,0.00
2019-05-25T00:23:17.018Z,0.00
2019-05-25T00:24:17.006Z,0.00
2019-05-25T00:25:16.995Z,0.00
2019-05-25T00:26:16.998Z,0.00
2019-05-25T00:27:16.973Z,0.00
2019-05-25T00:28:16.960Z,0.00
2019-05-25T00:29:16.951Z,0.00
2019-05-25T00:30:16.962Z,0.00
2019-05-25T00:31:16.927Z,0.00
2019-05-25T00:32:16.926Z,0.00
2019-05-25T00:33:16.915Z,0.00
2019-05-25T00:34:16.897Z,0.00
2019-05-25T00:35:16.883Z,0.00
2019-05-25T00:36:16.873Z,0.00
2019-05-25T00:37:16.870Z,0.00
2019-05-25T00:38:16.862Z,0.00
2019-05-25T00:39:16.840Z,0.00
2019-05-25T00:40:16.828Z,0.00
2019-05-25T00:41:16.818Z,0.00
2019-05-25T00:42:16.808Z,0.00
2019-05-25T00:43:16.796Z,0.00
2019-05-25T00:44:16.816Z,0.00
2019-05-25T00:45:16.774Z,0.00
2019-05-25T00:46:16.766Z,0.00
2019-05-25T00:47:16.753Z,0.00
2019-05-25T00:48:16.741Z,0.00
2019-05-25T00:49:16.731Z,0.00
2019-05-25T00:50:16.732Z,0.00
2019-05-25T00:51:16.710Z,0.00
2019-05-25T00:52:16.702Z,0.00
2019-05-25T00:53:16.697Z,0.00
2019-05-25T00:54:27.537Z,0.00
2019-05-25T00:55:17.680Z,0.00
2019-05-25T00:56:16.657Z,0.00
2019-05-25T00:57:16.646Z,0.00
2019-05-25T00:58:16.636Z,0.00
2019-05-25T00:59:16.625Z,0.00
2019-05-25T01:00:16.622Z,0.00
2019-05-25T01:01:16.617Z,0.00
2019-05-25T01:02:16.592Z,0.00
2019-05-25T01:03:16.584Z,0.00
2019-05-25T01:04:16.572Z,0.00
2019-05-25T01:05:16.559Z,0.00
2019-05-25T01:06:16.549Z,0.00
2019-05-25T01:07:16.550Z,0.00
2019-05-25T01:08:16.527Z,0.00
2019-05-25T01:09:16.520Z,0.00
2019-05-25T01:10:16.505Z,0.00
2019-05-25T01:11:16.494Z,0.00
2019-05-25T01:12:16.487Z,0.00
2019-05-25T01:13:16.484Z,0.00
2019-05-25T01:14:16.464Z,0.00
2019-05-25T01:15:16.452Z,0.00
2019-05-25T01:16:16.442Z,0.00
2019-05-25T01:17:16.430Z,0.00
2019-05-25T01:18:16.419Z,0.00
2019-05-25T01:19:16.433Z,0.00
2019-05-25T01:20:16.397Z,0.00
2019-05-25T01:21:16.394Z,0.00
2019-05-25T01:22:16.375Z,0.00
2019-05-25T01:23:16.365Z,0.00
2019-05-25T01:24:16.355Z,0.00
2019-05-25T01:25:16.356Z,0.00
2019-05-25T01:26:16.332Z,0.00
2019-05-25T01:27:16.321Z,0.00
2019-05-25T01:28:16.311Z,0.00
2019-05-25T01:29:16.300Z,0.00
2019-05-25T01:30:16.288Z,0.00
2019-05-25T01:31:16.288Z,0.00
2019-05-25T01:32:16.267Z,0.00
2019-05-25T01:33:16.256Z,0.00
2019-05-25T01:34:16.248Z,0.00
2019-05-25T01:35:16.234Z,0.00
2019-05-25T01:36:16.223Z,0.00
2019-05-25T01:37:16.233Z,0.00
2019-05-25T01:38:16.202Z,0.00
2019-05-25T01:39:16.191Z,0.00
2019-05-25T01:40:16.183Z,0.00
2019-05-25T01:41:16.170Z,0.00
2019-05-25T01:42:16.160Z,0.00
2019-05-25T01:43:16.157Z,0.00
2019-05-25T01:44:16.145Z,0.00
2019-05-25T01:45:16.139Z,0.00
2019-05-25T01:46:16.117Z,0.00
2019-05-25T01:47:16.105Z,0.00
2019-05-25T01:48:16.093Z,0.00
2019-05-25T01:49:16.095Z,0.00
2019-05-25T01:50:16.071Z,0.00
2019-05-25T01:51:16.062Z,0.00
2019-05-25T01:52:16.051Z,0.00
2019-05-25T01:53:16.039Z,0.00
2019-05-25T01:54:16.029Z,0.00
2019-05-25T01:55:16.028Z,0.00
2019-05-25T01:56:16.006Z,0.00
2019-05-25T01:57:15.997Z,0.00
2019-05-25T01:58:15.983Z,0.00
2019-05-25T01:59:15.972Z,0.00
2019-05-25T02:00:15.964Z,0.00
2019-05-25T02:01:15.962Z,0.00
2019-05-25T02:02:15.943Z,0.00
2019-05-25T02:03:15.929Z,0.00
2019-05-25T02:04:15.919Z,0.00
2019-05-25T02:05:15.908Z,0.00
2019-05-25T02:06:15.897Z,0.00
2019-05-25T02:07:15.895Z,0.00
2019-05-25T02:08:15.874Z,0.00
2019-05-25T02:09:15.864Z,0.00
2019-05-25T02:10:15.852Z,0.00
2019-05-25T02:11:15.841Z,0.00
2019-05-25T02:12:15.831Z,0.00
2019-05-25T02:13:15.842Z,0.00
2019-05-25T02:14:15.810Z,0.00
2019-05-25T02:15:15.797Z,0.00
2019-05-25T02:16:15.788Z,0.00
2019-05-25T02:17:15.774Z,0.00
2019-05-25T02:18:15.769Z,0.00
2019-05-25T02:19:15.766Z,0.00
2019-05-25T02:20:15.745Z,0.00
2019-05-25T02:21:15.730Z,0.00
2019-05-25T02:22:15.720Z,0.00
2019-05-25T02:23:15.713Z,0.00
2019-05-25T02:24:15.698Z,0.00
2019-05-25T02:25:18.026Z,0.00
2019-05-25T02:26:15.676Z,0.00
2019-05-25T02:27:15.664Z,0.00
2019-05-25T02:28:15.655Z,0.00
2019-05-25T02:29:15.642Z,0.00
2019-05-25T02:30:15.633Z,0.00
2019-05-25T02:31:15.641Z,0.00
2019-05-25T02:32:15.617Z,0.00
2019-05-25T02:33:15.602Z,0.00
2019-05-25T02:34:15.589Z,0.00
2019-05-25T02:35:15.577Z,0.00
2019-05-25T02:36:15.565Z,0.00
2019-05-25T02:37:15.566Z,0.00
2019-05-25T02:38:15.545Z,0.00
2019-05-25T02:39:15.533Z,0.00
2019-05-25T02:40:15.521Z,0.00
2019-05-25T02:41:15.511Z,0.00
2019-05-25T02:42:15.501Z,0.00
2019-05-25T02:43:15.503Z,0.00
2019-05-25T02:44:15.477Z,0.00
2019-05-25T02:45:15.467Z,0.00
2019-05-25T02:46:15.456Z,0.00
2019-05-25T02:47:15.444Z,0.00
2019-05-25T02:48:15.433Z,0.00
2019-05-25T02:49:15.448Z,0.00
2019-05-25T02:50:15.411Z,0.00
2019-05-25T02:51:15.417Z,0.00
2019-05-25T02:52:15.393Z,0.00
2019-05-25T02:53:15.402Z,0.00
2019-05-25T02:54:15.373Z,0.00
2019-05-25T02:55:15.367Z,0.00
2019-05-25T02:56:15.349Z,0.00
2019-05-25T02:57:15.335Z,0.00
2019-05-25T02:58:15.325Z,0.00
2019-05-25T02:59:15.314Z,0.00
2019-05-25T03:00:15.312Z,0.00
2019-05-25T03:01:15.303Z,0.00
2019-05-25T03:02:15.282Z,0.00
2019-05-25T03:03:15.271Z,0.00
2019-05-25T03:04:15.260Z,0.00
2019-05-25T03:05:15.249Z,0.00
2019-05-25T03:06:15.258Z,0.00
2019-05-25T03:07:15.238Z,0.00
2019-05-25T03:08:15.216Z,0.00
2019-05-25T03:09:15.205Z,0.00
2019-05-25T03:10:15.195Z,0.00
2019-05-25T03:11:15.185Z,0.00
2019-05-25T03:12:15.174Z,0.00
2019-05-25T03:13:15.173Z,0.00
2019-05-25T03:14:15.155Z,0.00
2019-05-25T03:15:15.140Z,0.00
2019-05-25T03:16:15.130Z,0.00
2019-05-25T03:17:15.120Z,0.00
2019-05-25T03:18:15.111Z,0.00
2019-05-25T03:19:15.109Z,0.00
2019-05-25T03:20:15.097Z,0.00
2019-05-25T03:21:15.076Z,0.00
2019-05-25T03:22:15.065Z,0.00
2019-05-25T03:23:15.054Z,0.00
2019-05-25T03:24:15.042Z,0.00
2019-05-25T03:25:15.043Z,0.00
2019-05-25T03:26:15.022Z,0.00
2019-05-25T03:27:15.012Z,0.00
2019-05-25T03:28:15.002Z,0.00
2019-05-25T03:29:14.990Z,0.00
2019-05-25T03:30:14.982Z,0.00
2019-05-25T03:31:14.978Z,0.00
2019-05-25T03:32:14.961Z,0.00
2019-05-25T03:33:14.952Z,5.62
2019-05-25T03:34:14.939Z,5.62
2019-05-25T03:35:14.926Z,5.62
2019-05-25T03:36:14.914Z,5.62
2019-05-25T03:37:14.911Z,5.62
2019-05-25T03:38:14.894Z,5.62
2019-05-25T03:39:14.880Z,5.62
2019-05-25T03:40:14.868Z,5.62
2019-05-25T03:41:14.858Z,5.62
2019-05-25T03:42:14.847Z,5.62
2019-05-25T03:43:14.846Z,5.62
2019-05-25T03:44:14.823Z,5.62
2019-05-25T03:45:14.820Z,5.62
2019-05-25T03:46:14.802Z,5.62
2019-05-25T03:47:14.801Z,5.62
2019-05-25T03:48:14.782Z,11.25
2019-05-25T03:49:14.780Z,11.25
2019-05-25T03:50:14.757Z,11.25
2019-05-25T03:51:14.751Z,11.25
2019-05-25T03:52:14.736Z,11.25
2019-05-25T03:53:14.726Z,11.25
2019-05-25T03:54:14.722Z,11.25
2019-05-25T03:55:14.730Z,11.25
2019-05-25T03:56:14.694Z,16.88
2019-05-25T03:57:14.683Z,16.88
2019-05-25T03:58:14.670Z,16.88
2019-05-25T03:59:14.658Z,16.88
2019-05-25T04:00:14.651Z,16.88
2019-05-25T04:01:14.652Z,16.88
2019-05-25T04:02:14.627Z,16.88
2019-05-25T04:03:14.646Z,16.88
2019-05-25T04:04:14.605Z,22.50
2019-05-25T04:05:14.595Z,22.50
2019-05-25T04:06:14.583Z,22.50
2019-05-25T04:07:14.583Z,28.12
2019-05-25T04:08:14.562Z,28.12
2019-05-25T04:09:14.551Z,28.12
2019-05-25T04:10:14.542Z,33.75
2019-05-25T04:11:14.530Z,33.75
2019-05-25T04:12:14.518Z,33.75
2019-05-25T04:13:14.535Z,33.75
2019-05-25T04:14:14.497Z,39.38
2019-05-25T04:15:14.487Z,39.38
2019-05-25T04:16:14.477Z,45.00
2019-05-25T04:17:14.470Z,45.00
2019-05-25T04:18:14.454Z,45.00
2019-05-25T04:19:14.453Z,45.00
2019-05-25T04:20:14.433Z,45.00
2019-05-25T04:21:14.443Z,50.62
2019-05-25T04:22:14.412Z,50.62
2019-05-25T04:23:14.400Z,45.00
2019-05-25T04:24:14.389Z,50.62
2019-05-25T04:25:14.389Z,56.25
2019-05-25T04:26:22.459Z,50.62
2019-05-25T04:27:15.355Z,50.62
2019-05-25T04:28:14.346Z,56.25
2019-05-25T04:29:14.336Z,50.62
2019-05-25T04:30:14.325Z,50.62
2019-05-25T04:31:14.328Z,50.62
2019-05-25T04:32:14.303Z,45.00
2019-05-25T04:33:14.290Z,45.00
2019-05-25T04:34:14.281Z,45.00
2019-05-25T04:35:14.269Z,39.38
2019-05-25T04:36:14.258Z,39.38
2019-05-25T04:37:14.267Z,39.38
2019-05-25T04:38:14.236Z,39.38
2019-05-25T04:39:14.238Z,39.38
2019-05-25T04:40:14.214Z,39.38
2019-05-25T04:41:14.203Z,39.38
2019-05-25T04:42:14.192Z,39.38
2019-05-25T04:43:14.194Z,39.38
2019-05-25T04:44:14.170Z,39.38
2019-05-25T04:45:14.159Z,45.00
2019-05-25T04:46:14.148Z,45.00
2019-05-25T04:47:26.470Z,45.00
2019-05-25T04:48:15.208Z,50.62
2019-05-25T04:49:14.115Z,50.62
2019-05-25T04:50:14.104Z,50.62
2019-05-25T04:51:14.098Z,50.62
2019-05-25T04:52:14.081Z,50.62
2019-05-25T04:53:14.070Z,56.25
2019-05-25T04:54:14.071Z,56.25
2019-05-25T04:55:14.049Z,61.88
2019-05-25T04:56:14.038Z,61.88
2019-05-25T04:57:14.070Z,61.88
2019-05-25T04:58:14.022Z,61.88
2019-05-25T04:59:14.006Z,61.88
2019-05-25T05:00:14.007Z,61.88
2019-05-25T05:01:14.019Z,61.88
2019-05-25T05:02:13.973Z,67.50
2019-05-25T05:03:13.984Z,67.50
2019-05-25T05:04:13.963Z,67.50
2019-05-25T05:05:13.938Z,61.88
2019-05-25T05:06:13.938Z,61.88
2019-05-25T05:07:13.919Z,67.50
2019-05-25T05:08:13.906Z,73.12
2019-05-25T05:09:13.899Z,78.75
2019-05-25T05:10:13.885Z,84.38
2019-05-25T05:11:13.876Z,84.38
2019-05-25T05:12:13.877Z,90.00
2019-05-25T05:13:13.853Z,90.00
2019-05-25T05:14:13.846Z,95.62
2019-05-25T05:15:13.831Z,90.00
2019-05-25T05:16:13.822Z,95.62
2019-05-25T05:17:13.811Z,95.62
2019-05-25T05:18:13.810Z,95.62
2019-05-25T05:19:13.809Z,101.25
2019-05-25T05:20:13.778Z,101.25
2019-05-25T05:21:13.769Z,106.88
2019-05-25T05:22:13.759Z,106.88
2019-05-25T05:23:13.748Z,112.50
2019-05-25T05:24:13.747Z,118.12
2019-05-25T05:25:13.725Z,118.12
2019-05-25T05:26:13.714Z,118.12
2019-05-25T05:27:13.717Z,123.75
2019-05-25T05:28:13.692Z,129.38
2019-05-25T05:29:13.683Z,146.25
2019-05-25T05:30:13.681Z,157.50
2019-05-25T05:31:23.266Z,168.75
2019-05-25T05:32:26.660Z,174.38
2019-05-25T05:33:14.640Z,191.25
2019-05-25T05:34:13.635Z,202.50
2019-05-25T05:35:13.615Z,213.75
2019-05-25T05:36:13.615Z,213.75
2019-05-25T05:37:13.594Z,196.88
2019-05-25T05:38:13.583Z,191.25
2019-05-25T05:39:13.572Z,180.00
2019-05-25T05:40:13.561Z,180.00
2019-05-25T05:41:13.549Z,168.75
2019-05-25T05:42:13.549Z,168.75
2019-05-25T05:43:13.528Z,168.75
2019-05-25T05:44:13.522Z,174.38
2019-05-25T05:45:13.512Z,185.62
2019-05-25T05:46:13.496Z,180.00
2019-05-25T05:47:13.487Z,191.25
2019-05-25T05:48:13.489Z,185.62
2019-05-25T05:49:13.465Z,180.00
2019-05-25T05:50:13.456Z,174.38
2019-05-25T05:51:13.442Z,174.38
2019-05-25T05:52:13.431Z,168.75
2019-05-25T05:53:13.421Z,174.38
2019-05-25T05:54:13.466Z,174.38
2019-05-25T05:55:13.401Z,174.38
2019-05-25T05:56:13.389Z,174.38
2019-05-25T05:57:13.396Z,174.38
2019-05-25T05:58:13.367Z,185.62
2019-05-25T05:59:13.357Z,191.25
2019-05-25T06:00:13.371Z,196.88
2019-05-25T06:01:13.336Z,196.88
2019-05-25T06:02:13.326Z,196.88
2019-05-25T06:03:13.342Z,191.25
2019-05-25T06:04:13.303Z,191.25
2019-05-25T06:05:13.296Z,185.62
2019-05-25T06:06:13.294Z,180.00
2019-05-25T06:07:13.348Z,180.00
2019-05-25T06:08:13.262Z,180.00
2019-05-25T06:09:13.252Z,180.00
2019-05-25T06:10:13.241Z,180.00
2019-05-25T06:11:13.275Z,191.25
2019-05-25T06:12:13.231Z,196.88
2019-05-25T06:13:13.209Z,202.50
2019-05-25T06:14:13.198Z,196.88
2019-05-25T06:15:13.186Z,202.50
2019-05-25T06:16:13.180Z,202.50
2019-05-25T06:17:13.167Z,208.12
2019-05-25T06:18:13.175Z,208.12
2019-05-25T06:19:13.144Z,208.12
2019-05-25T06:20:13.133Z,219.38
2019-05-25T06:21:13.123Z,225.00
2019-05-25T06:22:13.111Z,225.00
2019-05-25T06:23:13.100Z,236.25
2019-05-25T06:24:13.106Z,236.25
2019-05-25T06:25:13.077Z,241.88
2019-05-25T06:26:13.067Z,241.88
2019-05-25T06:27:26.556Z,241.88
2019-05-25T06:28:14.042Z,247.50
2019-05-25T06:29:13.032Z,247.50
2019-05-25T06:30:13.033Z,258.75
2019-05-25T06:31:13.010Z,264.38
2019-05-25T06:32:12.999Z,270.00
2019-05-25T06:33:12.987Z,270.00
2019-05-25T06:34:12.977Z,264.38
2019-05-25T06:35:12.966Z,258.75
2019-05-25T06:36:12.974Z,264.38
2019-05-25T06:37:12.949Z,253.12
2019-05-25T06:38:12.933Z,247.50
2019-05-25T06:39:12.921Z,247.50
2019-05-25T06:40:12.913Z,258.75
2019-05-25T06:41:12.909Z,275.62
2019-05-25T06:42:12.905Z,281.25
2019-05-25T06:43:12.877Z,292.50
2019-05-25T06:44:12.867Z,303.75
2019-05-25T06:45:12.859Z,303.75
2019-05-25T06:46:12.845Z,315.00
2019-05-25T06:47:12.833Z,331.88
2019-05-25T06:48:12.835Z,326.25
2019-05-25T06:49:12.812Z,315.00
2019-05-25T06:50:12.802Z,309.38
2019-05-25T06:51:12.790Z,298.12
2019-05-25T06:52:12.781Z,286.88
2019-05-25T06:53:12.770Z,275.62
2019-05-25T06:54:12.770Z,258.75
2019-05-25T06:55:12.751Z,236.25
2019-05-25T06:56:12.737Z,219.38
2019-05-25T06:57:12.726Z,213.75
2019-05-25T06:58:12.716Z,208.12
2019-05-25T06:59:12.706Z,213.75
2019-05-25T07:00:12.707Z,213.75
2019-05-25T07:01:12.684Z,225.00
2019-05-25T07:02:12.673Z,219.38
2019-05-25T07:03:12.663Z,225.00
2019-05-25T07:04:12.654Z,225.00
2019-05-25T07:05:12.641Z,208.12
2019-05-25T07:06:12.648Z,196.88
2019-05-25T07:07:12.619Z,196.88
2019-05-25T07:08:12.609Z,196.88
2019-05-25T07:09:12.600Z,185.62
2019-05-25T07:10:12.588Z,185.62
2019-05-25T07:11:12.577Z,180.00
2019-05-25T07:12:12.577Z,185.62
2019-05-25T07:13:12.557Z,185.62
2019-05-25T07:14:12.545Z,185.62
2019-05-25T07:15:12.535Z,191.25
2019-05-25T07:16:12.555Z,196.88
2019-05-25T07:17:12.513Z,208.12
2019-05-25T07:18:12.512Z,208.12
2019-05-25T07:19:12.492Z,208.12
2019-05-25T07:20:12.482Z,213.75
2019-05-25T07:21:12.471Z,225.00
2019-05-25T07:22:12.460Z,213.75
2019-05-25T07:23:12.449Z,225.00
2019-05-25T07:24:12.466Z,241.88
2019-05-25T07:25:12.428Z,247.50
2019-05-25T07:26:12.414Z,247.50
2019-05-25T07:27:12.404Z,253.12
2019-05-25T07:28:12.393Z,258.75
2019-05-25T07:29:12.384Z,264.38
2019-05-25T07:30:12.383Z,264.38
2019-05-25T07:31:12.361Z,275.62
2019-05-25T07:32:12.353Z,281.25
2019-05-25T07:33:12.339Z,264.38
2019-05-25T07:34:12.331Z,253.12
2019-05-25T07:35:12.326Z,241.88
2019-05-25T07:36:12.321Z,230.62
2019-05-25T07:37:12.296Z,225.00
2019-05-25T07:38:12.286Z,208.12
2019-05-25T07:39:12.275Z,208.12
2019-05-25T07:40:12.274Z,219.38
2019-05-25T07:41:12.254Z,230.62
2019-05-25T07:42:12.254Z,219.38
2019-05-25T07:43:12.232Z,225.00
2019-05-25T07:44:12.221Z,236.25
2019-05-25T07:45:12.210Z,241.88
2019-05-25T07:46:12.264Z,258.75
2019-05-25T07:47:12.189Z,275.62
2019-05-25T07:48:12.187Z,270.00
2019-05-25T07:49:12.167Z,292.50
2019-05-25T07:50:12.157Z,421.88
2019-05-25T07:51:12.147Z,303.75
2019-05-25T07:52:12.136Z,264.38
2019-05-25T07:53:12.122Z,270.00
2019-05-25T07:54:12.122Z,264.38
2019-05-25T07:55:12.112Z,281.25
2019-05-25T07:56:12.091Z,270.00
2019-05-25T07:57:12.079Z,264.38
2019-05-25T07:58:17.692Z,264.38
2019-05-25T07:59:13.068Z,281.25
2019-05-25T08:00:12.048Z,270.00
2019-05-25T08:01:12.038Z,298.12
2019-05-25T08:02:12.026Z,348.75
2019-05-25T08:03:12.019Z,433.12
2019-05-25T08:04:12.006Z,871.88
2019-05-25T08:05:12.006Z,534.38
2019-05-25T08:06:11.983Z,579.38
2019-05-25T08:07:11.971Z,635.62
2019-05-25T08:08:11.983Z,585.00
2019-05-25T08:09:11.950Z,703.12
2019-05-25T08:10:11.945Z,2621.25
2019-05-25T08:11:11.960Z,444.38
2019-05-25T08:12:11.916Z,399.38
2019-05-25T08:13:11.906Z,393.75
2019-05-25T08:14:11.894Z,365.62
2019-05-25T08:15:11.884Z,331.88
2019-05-25T08:16:11.873Z,326.25
2019-05-25T08:17:11.931Z,1254.38
2019-05-25T08:18:11.852Z,399.38
2019-05-25T08:19:11.844Z,2295.00
2019-05-25T08:20:11.895Z,2368.12
2019-05-25T08:21:11.820Z,2086.88
2019-05-25T08:22:11.813Z,826.88
2019-05-25T08:23:11.811Z,573.75
2019-05-25T08:24:11.786Z,511.88
2019-05-25T08:25:11.777Z,472.50
2019-05-25T08:26:11.765Z,427.50
2019-05-25T08:27:11.755Z,388.12
2019-05-25T08:28:11.745Z,371.25
2019-05-25T08:29:11.744Z,371.25
2019-05-25T08:30:11.723Z,360.00
2019-05-25T08:31:11.710Z,326.25
2019-05-25T08:32:11.700Z,320.62
2019-05-25T08:33:11.689Z,331.88
2019-05-25T08:34:11.677Z,309.38
2019-05-25T08:35:11.682Z,298.12
2019-05-25T08:36:11.656Z,298.12
2019-05-25T08:37:11.645Z,303.75
2019-05-25T08:38:11.634Z,298.12
2019-05-25T08:39:11.624Z,315.00
2019-05-25T08:40:11.611Z,303.75
2019-05-25T08:41:11.638Z,303.75
2019-05-25T08:42:11.590Z,298.12
2019-05-25T08:43:11.580Z,315.00
2019-05-25T08:44:11.570Z,315.00
2019-05-25T08:45:11.558Z,315.00
2019-05-25T08:46:11.546Z,315.00
2019-05-25T08:47:11.553Z,315.00
2019-05-25T08:48:11.526Z,315.00
2019-05-25T08:49:11.515Z,303.75
2019-05-25T08:50:11.503Z,303.75
2019-05-25T08:51:11.492Z,315.00
2019-05-25T08:52:11.485Z,331.88
2019-05-25T08:53:11.482Z,343.12
2019-05-25T08:54:11.592Z,331.88
2019-05-25T08:55:11.451Z,337.50
2019-05-25T08:56:11.439Z,365.62
2019-05-25T08:57:14.141Z,371.25
2019-05-25T08:58:12.466Z,382.50
2019-05-25T08:59:11.408Z,393.75
2019-05-25T09:00:11.399Z,405.00
2019-05-25T09:01:11.389Z,438.75
2019-05-25T09:02:11.375Z,450.00
2019-05-25T09:03:11.364Z,461.25
2019-05-25T09:04:11.385Z,478.12
2019-05-25T09:05:11.349Z,511.88
2019-05-25T09:06:11.334Z,523.12
2019-05-25T09:07:11.322Z,534.38
2019-05-25T09:08:11.312Z,545.62
2019-05-25T09:09:11.301Z,669.38
2019-05-25T09:10:11.301Z,635.62
2019-05-25T09:11:11.279Z,669.38
2019-05-25T09:12:11.267Z,675.00
2019-05-25T09:13:11.264Z,669.38
2019-05-25T09:14:11.244Z,562.50
2019-05-25T09:15:11.233Z,500.62
2019-05-25T09:16:11.233Z,500.62
2019-05-25T09:17:11.511Z,495.00
2019-05-25T09:18:11.267Z,500.62
2019-05-25T09:19:11.194Z,500.62
2019-05-25T09:20:11.416Z,478.12
2019-05-25T09:21:11.176Z,500.62
2019-05-25T09:22:11.170Z,517.50
2019-05-25T09:23:11.146Z,613.12
2019-05-25T09:24:11.153Z,545.62
2019-05-25T09:25:11.126Z,556.88
2019-05-25T09:26:13.361Z,556.88
2019-05-25T09:27:11.103Z,511.88
2019-05-25T09:28:11.127Z,534.38
2019-05-25T09:29:11.082Z,528.75
2019-05-25T09:30:11.078Z,624.38
2019-05-25T09:31:11.061Z,556.88
2019-05-25T09:32:11.059Z,483.75
2019-05-25T09:33:11.039Z,511.88
2019-05-25T09:34:11.039Z,624.38
2019-05-25T09:35:11.022Z,686.25
2019-05-25T09:36:11.008Z,652.50
2019-05-25T09:37:10.996Z,511.88
2019-05-25T09:38:10.985Z,540.00
2019-05-25T09:39:10.975Z,568.12
2019-05-25T09:40:10.982Z,720.00
2019-05-25T09:41:10.955Z,703.12
2019-05-25T09:42:10.941Z,579.38
2019-05-25T09:43:10.932Z,540.00
2019-05-25T09:44:10.923Z,573.75
2019-05-25T09:45:14.058Z,630.00
2019-05-25T09:46:10.915Z,686.25
2019-05-25T09:47:10.889Z,500.62
2019-05-25T09:48:10.878Z,585.00
2019-05-25T09:49:10.868Z,601.88
2019-05-25T09:50:10.858Z,607.50
2019-05-25T09:51:15.240Z,601.88
2019-05-25T09:52:10.845Z,438.75
2019-05-25T09:53:10.826Z,427.50
2019-05-25T09:54:10.818Z,472.50
2019-05-25T09:55:10.870Z,495.00
2019-05-25T09:56:10.792Z,455.62
2019-05-25T09:57:10.809Z,438.75
2019-05-25T09:58:10.837Z,444.38
2019-05-25T09:59:19.671Z,641.25
2019-05-25T10:00:11.747Z,596.25
2019-05-25T10:01:10.746Z,551.25
2019-05-25T10:02:10.847Z,545.62
2019-05-25T10:03:10.726Z,466.88
2019-05-25T10:04:10.722Z,388.12
2019-05-25T10:05:10.890Z,393.75
2019-05-25T10:06:13.225Z,450.00
2019-05-25T10:07:10.676Z,652.50
2019-05-25T10:08:10.662Z,438.75
2019-05-25T10:09:10.651Z,635.62
2019-05-25T10:10:10.655Z,585.00
2019-05-25T10:11:10.898Z,748.12
2019-05-25T10:12:10.815Z,646.88
2019-05-25T10:13:10.610Z,658.12
2019-05-25T10:14:10.596Z,523.12
2019-05-25T10:15:10.586Z,478.12
2019-05-25T10:16:10.622Z,444.38
2019-05-25T10:17:10.564Z,438.75
2019-05-25T10:18:10.558Z,478.12
2019-05-25T10:19:10.543Z,523.12
2019-05-25T10:20:10.539Z,511.88
2019-05-25T10:21:10.521Z,410.62
2019-05-25T10:22:10.526Z,405.00
2019-05-25T10:23:10.499Z,601.88
2019-05-25T10:24:10.487Z,472.50
2019-05-25T10:25:10.480Z,556.88
2019-05-25T10:26:10.466Z,894.38
2019-05-25T10:27:10.459Z,596.25
2019-05-25T10:28:10.455Z,1192.50
2019-05-25T10:29:10.434Z,1794.38
2019-05-25T10:30:10.424Z,534.38
2019-05-25T10:31:10.418Z,416.25
2019-05-25T10:32:10.402Z,393.75
2019-05-25T10:33:10.391Z,371.25
2019-05-25T10:34:10.390Z,371.25
2019-05-25T10:35:10.368Z,365.62
2019-05-25T10:36:10.360Z,376.88
2019-05-25T10:37:10.348Z,382.50
2019-05-25T10:38:10.337Z,365.62
2019-05-25T10:39:10.325Z,371.25
2019-05-25T10:40:10.325Z,405.00
2019-05-25T10:41:10.304Z,2210.62
2019-05-25T10:42:10.294Z,433.12
2019-05-25T10:43:10.284Z,461.25
2019-05-25T10:44:10.273Z,984.38
2019-05-25T10:45:10.262Z,450.00
2019-05-25T10:46:10.262Z,433.12
2019-05-25T10:47:10.239Z,438.75
2019-05-25T10:48:10.229Z,438.75
2019-05-25T10:49:11.826Z,421.88
2019-05-25T10:50:10.303Z,399.38
2019-05-25T10:51:10.196Z,399.38
2019-05-25T10:52:10.195Z,399.38
2019-05-25T10:53:10.174Z,382.50
2019-05-25T10:54:10.165Z,376.88
2019-05-25T10:55:10.158Z,365.62
2019-05-25T10:56:10.144Z,354.38
2019-05-25T10:57:13.097Z,354.38
2019-05-25T10:58:10.131Z,354.38
2019-05-25T10:59:10.109Z,360.00
2019-05-25T11:00:10.100Z,376.88
2019-05-25T11:01:10.088Z,393.75
2019-05-25T11:02:10.079Z,388.12
2019-05-25T11:03:10.074Z,410.62
2019-05-25T11:04:10.068Z,399.38
2019-05-25T11:05:10.051Z,388.12
2019-05-25T11:06:10.039Z,399.38
2019-05-25T11:07:10.025Z,416.25
2019-05-25T11:08:10.014Z,433.12
2019-05-25T11:09:10.014Z,427.50
2019-05-25T11:10:10.006Z,438.75
2019-05-25T11:11:09.982Z,433.12
2019-05-25T11:12:09.971Z,416.25
2019-05-25T11:13:09.959Z,405.00
2019-05-25T11:14:09.949Z,405.00
2019-05-25T11:15:09.940Z,405.00
2019-05-25T11:16:09.939Z,382.50
2019-05-25T11:17:09.916Z,371.25
2019-05-25T11:18:09.907Z,371.25
2019-05-25T11:19:09.894Z,371.25
2019-05-25T11:20:09.887Z,393.75
2019-05-25T11:21:09.871Z,399.38
2019-05-25T11:22:09.875Z,427.50
2019-05-25T11:23:09.851Z,444.38
2019-05-25T11:24:09.839Z,466.88
2019-05-25T11:25:09.835Z,455.62
2019-05-25T11:26:09.818Z,433.12
2019-05-25T11:27:09.808Z,438.75
2019-05-25T11:28:09.818Z,433.12
2019-05-25T11:29:09.787Z,444.38
2019-05-25T11:30:10.327Z,466.88
2019-05-25T11:31:09.772Z,511.88
2019-05-25T11:32:09.802Z,495.00
2019-05-25T11:33:09.745Z,489.38
2019-05-25T11:34:09.743Z,478.12
2019-05-25T11:35:09.723Z,489.38
2019-05-25T11:36:09.712Z,489.38
2019-05-25T11:37:09.702Z,506.25
2019-05-25T11:38:09.691Z,495.00
2019-05-25T11:39:09.680Z,483.75
2019-05-25T11:40:09.687Z,506.25
2019-05-25T11:41:09.658Z,489.38
2019-05-25T11:42:09.649Z,500.62
2019-05-25T11:43:09.643Z,523.12
2019-05-25T11:44:09.626Z,500.62
2019-05-25T11:45:09.616Z,495.00
2019-05-25T11:46:09.616Z,511.88
2019-05-25T11:47:09.599Z,540.00
2019-05-25T11:48:09.583Z,495.00
2019-05-25T11:49:22.259Z,500.62
2019-05-25T11:50:10.562Z,517.50
2019-05-25T11:51:09.570Z,528.75
2019-05-25T11:52:09.551Z,523.12
2019-05-25T11:53:09.531Z,506.25
2019-05-25T11:54:09.520Z,511.88
2019-05-25T11:55:09.507Z,472.50
2019-05-25T11:56:09.512Z,478.12
2019-05-25T11:57:09.485Z,450.00
2019-05-25T11:58:09.487Z,433.12
2019-05-25T11:59:09.464Z,438.75
2019-05-25T12:00:23.720Z,455.62
2019-05-25T12:01:10.441Z,461.25
2019-05-25T12:02:09.432Z,472.50
2019-05-25T12:03:09.425Z,466.88
2019-05-25T12:04:09.422Z,466.88
2019-05-25T12:05:09.418Z,455.62
2019-05-25T12:06:09.393Z,410.62
2019-05-25T12:07:09.379Z,376.88
2019-05-25T12:08:09.371Z,405.00
2019-05-25T12:09:09.358Z,399.38
2019-05-25T12:10:09.359Z,421.88
2019-05-25T12:11:09.336Z,444.38
2019-05-25T12:12:09.325Z,393.75
2019-05-25T12:13:09.315Z,399.38
2019-05-25T12:14:09.304Z,365.62
2019-05-25T12:15:09.293Z,326.25
2019-05-25T12:16:09.294Z,320.62
2019-05-25T12:17:09.328Z,343.12
2019-05-25T12:18:09.290Z,326.25
2019-05-25T12:19:09.251Z,298.12
2019-05-25T12:20:09.242Z,298.12
2019-05-25T12:21:09.230Z,303.75
2019-05-25T12:22:09.230Z,343.12
2019-05-25T12:23:09.242Z,365.62
2019-05-25T12:24:09.198Z,371.25
2019-05-25T12:25:09.187Z,337.50
2019-05-25T12:26:09.180Z,343.12
2019-05-25T12:27:09.167Z,348.75
2019-05-25T12:28:09.169Z,298.12
2019-05-25T12:29:09.143Z,303.75
2019-05-25T12:30:09.136Z,315.00
2019-05-25T12:31:09.123Z,315.00
2019-05-25T12:32:09.111Z,365.62
2019-05-25T12:33:09.099Z,365.62
2019-05-25T12:34:09.100Z,365.62
2019-05-25T12:35:09.077Z,337.50
2019-05-25T12:36:09.067Z,376.88
2019-05-25T12:37:09.057Z,388.12
2019-05-25T12:38:09.044Z,410.62
2019-05-25T12:39:09.033Z,405.00
2019-05-25T12:40:09.036Z,382.50
2019-05-25T12:41:09.012Z,365.62
2019-05-25T12:42:09.003Z,337.50
2019-05-25T12:43:08.990Z,331.88
2019-05-25T12:44:08.979Z,354.38
2019-05-25T12:45:08.969Z,326.25